Terminal Aerodrome Forecast
Issued by NWS

Home | Current Version | Previous Version | Text Only | Print | Product List | Glossary On
Versions: 1 2 3 4 5 6 7 8 9 10 11 12
352
FTUS45 KRIW 311123
TAFLND
TAF
KLND 311123Z 3112/0112 VRB06KT P6SM SCT250
     FM312100 19008KT P6SM FEW120 SCT250
     FM010200 24011KT P6SM FEW140 SCT250
     FM010900 VRB05KT P6SM SCT140 BKN250=

USA.gov is the U.S. government's official web portal to all federal, state and local government web resources and services.